»·PEaware :: N416JK P14-P52

N416JK :: P14-P52

FLIGHT INFORMATION

Flight Status: Arrived
Operator: Privately registered:
United States
More flights under this callsign
Pilot: John K. (4202)
Aircraft: DIAMOND DA-42 TWINSTAR
(DA42)
More flights by this aircraft type
Origin: P14 Holbrook Mun
United States
Destination: P52 Cottonwood
United States
More flights between these airports :: More routes between these airports
Route:
File this flight plan on PilotEdge
Remarks:
Altitude:
(Current/Filed)
105ft
Speed:
(Current/Filed)
150kts
Departed: 07-Nov-20 09:17 AM
Arrived: 07-Nov-20 09:57 AM
Distance/Time
Traveled:
94nm/0:40
Distance/Time
To Go:
Arrived

Flight Plot

Page will automatically refresh every two minutes.

Flight plan parsing failed; only flown route is shown


Map Options




Map Legend


Flown Route
Filed Route
Departure Airport
Arrival Airport
Navaid (VOR, NDB)
Fix

Horizontal Profiles

Position Reports

Time Latitude Longitude Heading Altitude Ground
Speed
07-Nov-20 09:03 34.934972 -110.142784 312 5267ft 0kts
07-Nov-20 09:04 34.936644 -110.142268 251 5267ft 5kts
07-Nov-20 09:05 34.934962 -110.142781 312 5267ft 0kts
07-Nov-20 09:07 34.934962 -110.142781 312 5267ft 0kts
07-Nov-20 09:08 34.934962 -110.142781 312 5267ft 0kts
07-Nov-20 09:09 34.934962 -110.142782 312 5267ft 0kts
07-Nov-20 09:11 34.936219 -110.143044 145 5267ft 7kts
07-Nov-20 09:12 34.936167 -110.141899 20 5267ft 4kts
07-Nov-20 09:13 34.936344 -110.141752 39 5267ft 0kts
07-Nov-20 09:14 34.939208 -110.139253 39 5266ft 24kts
07-Nov-20 09:15 34.944504 -110.133907 39 5267ft 18kts
07-Nov-20 09:16 34.948469 -110.130148 300 5267ft 0kts
07-Nov-20 09:17 34.938054 -110.142454 228 5953ft 71kts
07-Nov-20 09:18 34.941644 -110.166151 264 7222ft 94kts
07-Nov-20 09:19 34.951534 -110.199515 263 8125ft 129kts
07-Nov-20 09:20 34.938878 -110.231723 233 9075ft 118kts
07-Nov-20 09:21 34.929192 -110.272381 242 10120ft 128kts
07-Nov-20 09:22 34.923215 -110.313013 247 10481ft 152kts
07-Nov-20 09:23 34.917153 -110.365747 248 10477ft 165kts
07-Nov-20 09:24 34.911307 -110.420368 249 10475ft 165kts
07-Nov-20 09:25 34.905429 -110.475692 249 10475ft 164kts
07-Nov-20 09:26 34.899663 -110.529830 249 10475ft 164kts
07-Nov-20 09:27 34.893887 -110.583867 249 10475ft 164kts
07-Nov-20 09:28 34.888080 -110.637974 249 10474ft 164kts
07-Nov-20 09:29 34.882450 -110.691939 248 10479ft 164kts
07-Nov-20 09:29 34.877554 -110.737876 248 10478ft 164kts
07-Nov-20 09:31 34.870831 -110.800329 247 10478ft 159kts
07-Nov-20 09:32 34.865106 -110.852574 247 10478ft 158kts
07-Nov-20 09:32 34.860270 -110.896648 246 10478ft 157kts
07-Nov-20 09:34 34.853593 -110.957312 247 10478ft 157kts
07-Nov-20 09:34 34.848837 -111.000377 246 10478ft 157kts
07-Nov-20 09:35 34.843174 -111.051474 247 10477ft 157kts
07-Nov-20 09:36 34.837464 -111.102794 246 10477ft 157kts
07-Nov-20 09:37 34.831568 -111.155561 246 10476ft 157kts
07-Nov-20 09:38 34.825806 -111.206930 246 10476ft 157kts
07-Nov-20 09:39 34.820067 -111.257932 246 10473ft 158kts
07-Nov-20 09:40 34.814047 -111.310953 247 10476ft 164kts
07-Nov-20 09:41 34.807780 -111.366292 247 10475ft 165kts
07-Nov-20 09:42 34.801604 -111.420541 247 10475ft 165kts
07-Nov-20 09:43 34.795410 -111.474902 247 10446ft 167kts
07-Nov-20 09:44 34.788690 -111.533334 249 9660ft 187kts
07-Nov-20 09:45 34.781343 -111.597194 250 8679ft 193kts
07-Nov-20 09:46 34.774102 -111.659989 251 7728ft 194kts
07-Nov-20 09:47 34.767065 -111.721421 251 6750ft 183kts
07-Nov-20 09:48 34.760155 -111.780420 253 6016ft 180kts
07-Nov-20 09:49 34.753145 -111.840167 254 5288ft 187kts
07-Nov-20 09:50 34.745588 -111.904592 255 4589ft 177kts
07-Nov-20 09:51 34.740762 -111.946383 248 4540ft 84kts
07-Nov-20 09:52 34.736948 -111.977158 250 4577ft 111kts
07-Nov-20 09:53 34.747362 -112.011144 323 4506ft 143kts
07-Nov-20 09:54 34.773440 -112.042496 249 4405ft 134kts
07-Nov-20 09:55 34.746554 -112.043676 169 3939ft 96kts
07-Nov-20 09:56 34.729187 -112.034851 159 3553ft 12kts
07-Nov-20 09:57 34.732251 -112.036993 334 3553ft 19kts
07-Nov-20 09:58 34.733366 -112.038166 51 3553ft 0kts

Navigation Log

Ident Type
Flight plan parsing failed, navigation log unavailable